createdAt,value
2023-04-22T00:05:08.528Z,100.00
2023-04-22T00:08:10.720Z,100.00
2023-04-22T00:11:16.828Z,100.00
2023-04-22T00:14:19.286Z,100.00
2023-04-22T00:30:53.802Z,100.00
2023-04-22T00:33:57.412Z,100.00
2023-04-22T00:37:01.078Z,100.00
2023-04-22T00:40:04.917Z,100.00
2023-04-22T00:43:09.606Z,100.00
2023-04-22T00:46:15.371Z,100.00
2023-04-22T00:49:20.411Z,100.00
2023-04-22T00:52:23.565Z,100.00
2023-04-22T00:55:27.717Z,100.00
2023-04-22T00:58:32.326Z,100.00
2023-04-22T01:01:36.674Z,100.00
2023-04-22T01:04:40.373Z,100.00
2023-04-22T01:07:43.669Z,100.00
2023-04-22T01:10:47.522Z,100.00
2023-04-22T01:13:52.004Z,100.00
2023-04-22T01:16:56.400Z,100.00
2023-04-22T01:20:00.170Z,100.00
2023-04-22T01:23:10.403Z,100.00
2023-04-22T01:26:13.771Z,100.00
2023-04-22T01:29:17.809Z,100.00
2023-04-22T01:32:21.345Z,100.00
2023-04-22T01:35:24.946Z,100.00
2023-04-22T01:38:29.751Z,100.00
2023-04-22T01:41:34.585Z,100.00
2023-04-22T01:44:37.885Z,100.00
2023-04-22T01:47:41.579Z,100.00
2023-04-22T01:50:45.877Z,100.00
2023-04-22T01:53:51.393Z,100.00
2023-04-22T01:56:56.223Z,100.00
2023-04-22T02:00:01.228Z,100.00
2023-04-22T02:04:50.760Z,100.00
2023-04-22T02:07:55.046Z,100.00
2023-04-22T02:11:00.681Z,100.00
2023-04-22T02:14:04.403Z,100.00
2023-04-22T02:17:08.096Z,100.00
2023-04-22T02:20:12.396Z,100.00
2023-04-22T02:23:16.858Z,100.00
2023-04-22T02:26:21.173Z,100.00
2023-04-22T02:29:26.313Z,100.00
2023-04-22T02:32:33.556Z,100.00
2023-04-22T02:35:37.105Z,100.00
2023-04-22T02:38:41.528Z,100.00
2023-04-22T02:41:44.644Z,100.00
2023-04-22T02:44:48.625Z,100.00
2023-04-22T02:47:52.039Z,100.00
2023-04-22T02:50:56.139Z,100.00
2023-04-22T02:54:00.560Z,100.00
2023-04-22T02:57:04.545Z,100.00
2023-04-22T03:00:11.105Z,100.00
2023-04-22T03:03:14.764Z,100.00
2023-04-22T03:06:18.679Z,100.00
2023-04-22T03:09:22.593Z,100.00
2023-04-22T03:12:25.996Z,100.00
2023-04-22T03:15:29.477Z,100.00
2023-04-22T03:18:32.877Z,100.00
2023-04-22T03:21:36.479Z,100.00
2023-04-22T03:24:39.948Z,100.00
2023-04-22T03:27:43.967Z,100.00
2023-04-22T03:30:47.709Z,100.00
2023-04-22T03:33:51.842Z,100.00
2023-04-22T03:37:02.787Z,100.00
2023-04-22T03:40:07.525Z,100.00
2023-04-22T03:43:12.364Z,100.00
2023-04-22T03:46:17.249Z,100.00
2023-04-22T03:49:26.825Z,100.00
2023-04-22T03:52:31.571Z,100.00
2023-04-22T03:55:35.597Z,100.00
2023-04-22T03:58:39.004Z,100.00
2023-04-22T04:05:10.926Z,100.00
2023-04-22T04:08:14.269Z,100.00
2023-04-22T04:11:17.782Z,100.00
2023-04-22T04:14:21.398Z,100.00
2023-04-22T04:17:26.090Z,100.00
2023-04-22T04:20:29.094Z,100.00
2023-04-22T04:23:31.783Z,100.00
2023-04-22T04:26:34.288Z,100.00
2023-04-22T04:29:44.107Z,100.00
2023-04-22T04:32:53.060Z,100.00
2023-04-22T04:35:55.513Z,100.00
2023-04-22T04:39:01.778Z,100.00
2023-04-22T04:42:05.186Z,100.00
2023-04-22T04:45:11.178Z,100.00
2023-04-22T04:48:14.333Z,100.00
2023-04-22T04:51:20.225Z,100.00
2023-04-22T04:54:31.173Z,100.00
2023-04-22T04:57:37.177Z,100.00
2023-04-22T05:00:40.730Z,100.00
2023-04-22T05:03:43.592Z,100.00
2023-04-22T05:06:49.064Z,100.00
2023-04-22T05:09:51.762Z,100.00
2023-04-22T05:12:54.293Z,100.00
2023-04-22T05:15:59.597Z,100.00
2023-04-22T05:19:01.954Z,100.00
2023-04-22T05:22:06.850Z,100.00
2023-04-22T05:25:10.704Z,100.00
2023-04-22T05:28:14.558Z,100.00
2023-04-22T05:31:22.130Z,100.00
2023-04-22T05:34:24.272Z,100.00
2023-04-22T05:37:28.803Z,100.00
2023-04-22T05:40:31.170Z,100.00
2023-04-22T05:43:34.264Z,100.00
2023-04-22T05:46:42.783Z,100.00
2023-04-22T05:49:44.850Z,100.00
2023-04-22T05:53:07.397Z,100.00
2023-04-22T05:56:09.265Z,100.00
2023-04-22T05:59:11.631Z,100.00
2023-04-22T06:05:10.109Z,100.00
2023-04-22T06:08:13.875Z,100.00
2023-04-22T06:11:15.834Z,100.00
2023-04-22T06:14:17.780Z,100.00
2023-04-22T06:17:19.964Z,100.00
2023-04-22T06:20:23.566Z,100.00
2023-04-22T06:23:25.733Z,100.00
2023-04-22T06:27:07.834Z,100.00
2023-04-22T06:30:11.667Z,100.00
2023-04-22T06:33:15.377Z,100.00
2023-04-22T06:36:18.266Z,100.00
2023-04-22T06:39:23.921Z,100.00
2023-04-22T06:42:57.697Z,100.00
2023-04-22T06:46:15.590Z,100.00
2023-04-22T06:49:26.769Z,100.00
2023-04-22T06:52:51.729Z,100.00
2023-04-22T06:55:54.425Z,100.00
2023-04-22T06:58:57.057Z,100.00
2023-04-22T07:02:00.773Z,100.00
2023-04-22T07:05:05.035Z,100.00
2023-04-22T07:08:09.670Z,100.00
2023-04-22T07:11:14.325Z,100.00
2023-04-22T07:14:45.038Z,100.00
2023-04-22T07:17:47.048Z,100.00
2023-04-22T07:20:49.280Z,100.00
2023-04-22T07:23:51.695Z,100.00
2023-04-22T07:26:53.885Z,98.86
2023-04-22T07:29:55.838Z,97.06
2023-04-22T07:32:57.876Z,94.97
2023-04-22T07:36:02.967Z,90.13
2023-04-22T07:39:05.758Z,88.15
2023-04-22T07:42:07.859Z,86.23
2023-04-22T07:45:10.758Z,85.31
2023-04-22T07:48:12.995Z,82.72
2023-04-22T07:51:15.112Z,80.97
2023-04-22T07:54:17.346Z,77.04
2023-04-22T07:57:22.142Z,74.29
2023-04-22T08:00:24.275Z,73.74
2023-04-22T08:03:26.846Z,74.04
2023-04-22T08:06:31.615Z,73.70
2023-04-22T08:09:33.540Z,72.25
2023-04-22T08:12:38.204Z,71.12
2023-04-22T08:15:40.358Z,70.19
2023-04-22T08:18:43.401Z,68.85
2023-04-22T08:21:46.177Z,68.09
2023-04-22T08:24:48.108Z,67.04
2023-04-22T08:27:51.172Z,67.22
2023-04-22T08:30:53.112Z,66.98
2023-04-22T08:33:55.279Z,64.93
2023-04-22T08:36:57.373Z,63.61
2023-04-22T08:40:01.284Z,62.52
2023-04-22T08:43:05.273Z,61.27
2023-04-22T08:46:11.110Z,60.53
2023-04-22T08:49:31.641Z,60.56
2023-04-22T08:52:34.225Z,56.75
2023-04-22T08:55:37.079Z,53.14
2023-04-22T08:58:42.913Z,52.42
2023-04-22T09:01:49.629Z,51.70
2023-04-22T09:04:56.019Z,49.27
2023-04-22T09:07:59.400Z,49.08
2023-04-22T09:11:03.211Z,47.84
2023-04-22T09:14:06.251Z,44.23
2023-04-22T09:17:10.321Z,41.69
2023-04-22T09:20:13.164Z,40.86
2023-04-22T09:23:15.673Z,38.79
2023-04-22T09:26:25.566Z,37.46
2023-04-22T09:29:31.389Z,35.96
2023-04-22T09:32:33.381Z,34.84
2023-04-22T09:35:39.362Z,34.66
2023-04-22T09:38:51.538Z,33.61
2023-04-22T09:41:55.969Z,30.90
2023-04-22T09:45:00.008Z,30.09
2023-04-22T09:48:08.396Z,29.86
2023-04-22T09:51:18.925Z,30.42
2023-04-22T09:54:23.207Z,30.99
2023-04-22T09:57:27.388Z,31.33
2023-04-22T10:00:30.706Z,31.31
2023-04-22T10:05:13.347Z,31.19
2023-04-22T10:08:18.173Z,30.82
2023-04-22T10:11:21.956Z,30.33
2023-04-22T10:14:25.020Z,29.67
2023-04-22T10:17:31.438Z,29.87
2023-04-22T10:20:40.753Z,29.62
2023-04-22T10:23:48.702Z,28.62
2023-04-22T10:27:13.872Z,28.96
2023-04-22T10:30:28.684Z,28.31
2023-04-22T10:33:40.824Z,27.93
2023-04-22T10:37:08.892Z,27.96
2023-04-22T10:40:18.667Z,28.15
2023-04-22T10:43:20.873Z,27.57
2023-04-22T10:46:39.336Z,27.02
2023-04-22T10:49:43.613Z,26.80
2023-04-22T10:52:57.912Z,26.38
2023-04-22T10:56:01.546Z,26.30
2023-04-22T10:59:16.415Z,26.72
2023-04-22T11:02:21.097Z,26.48
2023-04-22T11:05:26.484Z,25.76
2023-04-22T11:08:28.581Z,25.08
2023-04-22T11:11:30.553Z,24.85
2023-04-22T11:14:33.509Z,24.16
2023-04-22T11:17:37.572Z,23.59
2023-04-22T11:20:39.899Z,23.32
2023-04-22T11:23:52.427Z,23.27
2023-04-22T11:26:56.540Z,22.87
2023-04-22T11:30:08.857Z,23.08
2023-04-22T11:33:15.102Z,23.16
2023-04-22T11:36:19.147Z,23.22
2023-04-22T11:39:21.182Z,23.15
2023-04-22T11:42:23.451Z,23.19
2023-04-22T11:45:26.346Z,22.98
2023-04-22T11:48:28.522Z,22.10
2023-04-22T11:51:31.437Z,21.83
2023-04-22T11:54:37.362Z,22.17
2023-04-22T11:57:40.660Z,22.29
2023-04-22T12:00:50.027Z,22.24
2023-04-22T12:03:59.825Z,21.95
2023-04-22T12:07:03.465Z,21.40
2023-04-22T12:10:07.468Z,20.58
2023-04-22T12:13:10.551Z,20.63
2023-04-22T12:16:20.185Z,20.73
2023-04-22T12:28:54.435Z,20.36
2023-04-22T12:31:56.661Z,20.37
2023-04-22T12:34:58.652Z,20.52
2023-04-22T12:38:01.303Z,20.56
2023-04-22T12:41:03.868Z,20.75
2023-04-22T12:44:05.847Z,20.81
2023-04-22T12:47:09.404Z,20.91
2023-04-22T12:50:11.331Z,20.78
2023-04-22T12:53:14.702Z,20.67
2023-04-22T12:56:16.547Z,20.79
2023-04-22T12:59:18.961Z,21.10
2023-04-22T13:02:20.878Z,21.27
2023-04-22T13:05:22.774Z,21.35
2023-04-22T13:08:25.918Z,21.07
2023-04-22T13:11:29.328Z,20.87
2023-04-22T13:14:31.191Z,21.34
2023-04-22T13:17:34.457Z,21.67
2023-04-22T13:20:36.341Z,21.47
2023-04-22T13:23:39.408Z,20.88
2023-04-22T13:30:35.864Z,20.18
2023-04-22T13:33:38.849Z,19.42
2023-04-22T13:36:42.135Z,19.22
2023-04-22T13:39:46.680Z,20.26
2023-04-22T13:42:48.735Z,20.97
2023-04-22T13:45:50.920Z,21.06
2023-04-22T13:48:54.404Z,20.82
2023-04-22T13:51:56.889Z,20.40
2023-04-22T13:54:58.864Z,20.09
2023-04-22T13:58:01.053Z,19.49
2023-04-22T14:04:50.723Z,18.98
2023-04-22T14:07:54.860Z,18.41
2023-04-22T14:10:59.629Z,18.18
2023-04-22T14:14:03.100Z,18.47
2023-04-22T14:17:07.101Z,19.43
2023-04-22T14:20:11.320Z,20.37
2023-04-22T14:23:15.320Z,21.02
2023-04-22T14:26:18.534Z,21.79
2023-04-22T14:29:21.924Z,22.50
2023-04-22T14:32:25.975Z,23.08
2023-04-22T14:35:30.039Z,23.06
2023-04-22T14:38:33.751Z,23.00
2023-04-22T14:41:37.266Z,23.53
2023-04-22T14:44:40.752Z,23.56
2023-04-22T14:47:44.279Z,23.27
2023-04-22T14:50:47.959Z,23.36
2023-04-22T14:53:51.871Z,23.63
2023-04-22T14:56:56.250Z,23.21
2023-04-22T15:00:18.231Z,22.18
2023-04-22T15:03:21.761Z,21.94
2023-04-22T15:06:25.916Z,21.77
2023-04-22T15:09:30.175Z,21.65
2023-04-22T15:12:34.008Z,21.39
2023-04-22T15:15:38.846Z,21.48
2023-04-22T15:18:42.171Z,21.16
2023-04-22T15:21:46.982Z,21.65
2023-04-22T15:24:50.812Z,22.41
2023-04-22T15:33:54.428Z,23.42
2023-04-22T15:36:56.506Z,23.16
2023-04-22T15:39:58.957Z,23.32
2023-04-22T15:43:01.585Z,23.93
2023-04-22T15:46:03.701Z,24.87
2023-04-22T15:49:05.728Z,25.58
2023-04-22T15:52:09.727Z,26.27
2023-04-22T15:55:11.836Z,26.58
2023-04-22T15:58:13.908Z,26.44
2023-04-22T16:01:20.150Z,26.12
2023-04-22T16:04:25.075Z,25.68
2023-04-22T16:07:31.304Z,25.53
2023-04-22T16:10:34.676Z,26.00
2023-04-22T16:13:38.649Z,26.67
2023-04-22T16:16:42.570Z,27.17
2023-04-22T16:19:45.317Z,27.52
2023-04-22T16:22:47.390Z,27.54
2023-04-22T16:25:50.887Z,27.98
2023-04-22T16:28:54.565Z,28.51
2023-04-22T16:31:56.738Z,28.84
2023-04-22T16:34:59.412Z,29.25
2023-04-22T16:38:03.123Z,29.34
2023-04-22T16:41:05.327Z,29.65
2023-04-22T16:44:09.202Z,30.09
2023-04-22T16:47:11.786Z,30.53
2023-04-22T16:50:13.757Z,30.78
2023-04-22T16:53:15.946Z,31.17
2023-04-22T16:56:18.274Z,31.37
2023-04-22T16:59:20.362Z,31.68
2023-04-22T17:02:22.446Z,31.99
2023-04-22T17:05:25.092Z,32.19
2023-04-22T17:08:28.417Z,32.44
2023-04-22T17:11:32.370Z,32.71
2023-04-22T17:14:34.569Z,33.28
2023-04-22T17:17:36.432Z,33.45
2023-04-22T17:20:39.686Z,33.61
2023-04-22T17:23:45.640Z,34.02
2023-04-22T17:26:49.560Z,34.17
2023-04-22T17:29:51.800Z,34.47
2023-04-22T17:32:54.885Z,34.68
2023-04-22T17:35:57.062Z,34.85
2023-04-22T17:38:59.130Z,35.09
2023-04-22T17:42:02.223Z,35.11
2023-04-22T17:45:06.647Z,35.19
2023-04-22T17:48:09.247Z,35.41
2023-04-22T17:51:11.615Z,35.56
2023-04-22T17:54:17.027Z,35.72
2023-04-22T17:57:19.109Z,35.63
2023-04-22T18:00:24.084Z,35.75
2023-04-22T18:04:51.325Z,36.01
2023-04-22T18:08:01.884Z,36.11
2023-04-22T18:11:05.908Z,36.34
2023-04-22T18:14:09.251Z,36.46
2023-04-22T18:17:14.166Z,36.55
2023-04-22T18:20:20.187Z,36.67
2023-04-22T18:23:23.692Z,36.77
2023-04-22T18:26:26.932Z,36.97
2023-04-22T18:29:30.673Z,37.22
2023-04-22T18:32:33.926Z,37.43
2023-04-22T18:35:37.937Z,37.51
2023-04-22T18:38:43.604Z,37.63
2023-04-22T18:55:34.945Z,38.90
2023-04-22T18:58:38.529Z,38.98
2023-04-22T19:01:40.850Z,39.10
2023-04-22T19:18:49.975Z,40.81
2023-04-22T19:21:53.345Z,40.87
2023-04-22T19:24:57.225Z,41.06
2023-04-22T19:27:59.655Z,41.38
2023-04-22T19:31:06.979Z,41.50
2023-04-22T19:34:10.166Z,41.91
2023-04-22T19:37:18.272Z,42.11
2023-04-22T19:40:24.242Z,42.10
2023-04-22T19:43:26.805Z,42.19
2023-04-22T19:46:31.077Z,42.41
2023-04-22T19:49:35.655Z,42.46
2023-04-22T19:52:42.163Z,42.76
2023-04-22T19:55:46.138Z,42.92
2023-04-22T19:58:48.722Z,43.10
2023-04-22T20:01:51.141Z,43.18
2023-04-22T20:04:54.367Z,43.33
2023-04-22T20:08:00.949Z,43.51
2023-04-22T20:11:03.529Z,43.55
2023-04-22T20:14:08.666Z,43.66
2023-04-22T20:17:11.199Z,43.94
2023-04-22T20:20:15.153Z,43.85
2023-04-22T20:23:22.463Z,43.81
2023-04-22T20:26:24.657Z,43.71
2023-04-22T20:29:26.911Z,43.88
2023-04-22T20:32:29.239Z,43.89
2023-04-22T20:35:31.597Z,43.80
2023-04-22T20:38:37.085Z,43.68
2023-04-22T20:41:39.357Z,43.64
2023-04-22T20:44:41.868Z,43.76
2023-04-22T20:47:45.771Z,43.77
2023-04-22T20:50:47.748Z,43.58
2023-04-22T20:53:51.634Z,43.62
2023-04-22T20:56:53.436Z,43.70
2023-04-22T20:59:55.365Z,43.70
2023-04-22T21:02:59.108Z,43.63
2023-04-22T21:06:02.045Z,43.67
2023-04-22T21:09:08.080Z,43.61
2023-04-22T21:12:11.057Z,43.39
2023-04-22T21:15:14.102Z,43.44
2023-04-22T21:18:21.180Z,43.38
2023-04-22T21:21:30.105Z,43.40
2023-04-22T21:24:34.531Z,43.23
2023-04-22T21:27:37.004Z,43.30
2023-04-22T21:30:39.219Z,43.45
2023-04-22T21:33:42.268Z,43.58
2023-04-22T21:41:05.668Z,45.42
2023-04-22T21:44:07.835Z,45.84
2023-04-22T21:47:11.036Z,45.41
2023-04-22T21:50:13.167Z,45.37
2023-04-22T21:53:18.952Z,45.24
2023-04-22T21:56:21.534Z,44.88
2023-04-22T21:59:24.422Z,44.94
2023-04-22T22:04:52.862Z,45.19
2023-04-22T22:07:56.041Z,45.19
2023-04-22T22:10:59.751Z,45.32
2023-04-22T22:14:03.218Z,45.42
2023-04-22T22:17:09.812Z,45.71
2023-04-22T22:20:18.154Z,45.95
2023-04-22T22:23:21.813Z,45.92
2023-04-22T22:26:25.053Z,46.00
2023-04-22T22:29:28.594Z,45.85
2023-04-22T22:32:33.024Z,45.94
2023-04-22T22:35:38.117Z,45.91
2023-04-22T22:38:41.260Z,45.85
2023-04-22T22:41:44.523Z,45.80
2023-04-22T22:44:48.928Z,45.88
2023-04-22T22:47:53.723Z,45.77
2023-04-22T22:50:58.019Z,45.56
2023-04-22T22:54:01.660Z,45.48
2023-04-22T22:57:05.916Z,45.52
2023-04-22T23:00:12.131Z,45.57
2023-04-22T23:03:19.672Z,45.82
2023-04-22T23:06:23.620Z,45.99
2023-04-22T23:09:29.185Z,46.25
2023-04-22T23:12:32.386Z,46.38
2023-04-22T23:15:37.917Z,46.41
2023-04-22T23:18:41.382Z,46.38
2023-04-22T23:21:46.135Z,46.64
2023-04-22T23:24:49.981Z,46.55
2023-04-22T23:27:53.731Z,46.42
2023-04-22T23:30:58.792Z,46.35
2023-04-22T23:34:06.220Z,46.47
2023-04-22T23:37:13.760Z,46.48
2023-04-22T23:40:17.204Z,46.58
2023-04-22T23:43:20.505Z,46.54
2023-04-22T23:46:23.701Z,46.59
2023-04-22T23:49:26.904Z,46.69
2023-04-22T23:52:30.345Z,46.75
2023-04-22T23:55:35.739Z,46.79
2023-04-22T23:58:39.640Z,46.96
